createdAt,value
2022-07-30T00:00:24.624Z,20.17
2022-07-30T00:02:53.172Z,20.03
2022-07-30T00:05:20.688Z,20.05
2022-07-30T00:07:48.211Z,20.05
2022-07-30T00:10:15.547Z,19.94
2022-07-30T00:12:42.823Z,19.80
2022-07-30T00:15:13.703Z,19.73
2022-07-30T00:17:40.930Z,19.74
2022-07-30T00:20:08.513Z,19.76
2022-07-30T00:22:38.283Z,19.83
2022-07-30T00:25:06.786Z,19.84
2022-07-30T00:27:35.184Z,19.70
2022-07-30T00:30:04.176Z,19.80
2022-07-30T00:32:31.607Z,19.76
2022-07-30T00:34:58.733Z,19.75
2022-07-30T00:37:25.926Z,19.73
2022-07-30T00:39:53.246Z,19.68
2022-07-30T00:42:25.633Z,19.61
2022-07-30T00:44:54.721Z,19.55
2022-07-30T00:47:21.817Z,19.47
2022-07-30T00:49:48.806Z,19.44
2022-07-30T00:52:15.829Z,19.40
2022-07-30T00:54:43.028Z,19.37
2022-07-30T00:57:10.165Z,19.45
2022-07-30T00:59:37.873Z,19.63
2022-07-30T01:02:05.481Z,19.60
2022-07-30T01:04:34.513Z,19.74
2022-07-30T01:07:02.150Z,19.69
2022-07-30T01:09:30.208Z,19.67
2022-07-30T01:11:58.214Z,19.54
2022-07-30T01:14:25.490Z,19.35
2022-07-30T01:16:52.874Z,19.38
2022-07-30T01:19:45.577Z,19.25
2022-07-30T01:22:31.166Z,19.20
2022-07-30T01:25:05.655Z,19.16
2022-07-30T01:27:45.896Z,19.05
2022-07-30T01:30:15.584Z,19.02
2022-07-30T01:32:51.444Z,18.90
2022-07-30T01:35:24.382Z,18.84
2022-07-30T01:37:56.707Z,18.92
2022-07-30T01:40:29.414Z,19.00
2022-07-30T01:42:58.846Z,18.84
2022-07-30T01:45:28.860Z,18.83
2022-07-30T01:47:58.898Z,18.82
2022-07-30T01:50:28.282Z,18.79
2022-07-30T01:52:57.935Z,18.79
2022-07-30T01:55:30.489Z,18.83
2022-07-30T01:57:59.099Z,18.88
2022-07-30T02:00:28.505Z,18.89
2022-07-30T02:02:55.518Z,18.89
2022-07-30T02:05:23.537Z,18.88
2022-07-30T02:07:58.909Z,18.87
2022-07-30T02:10:33.778Z,18.83
2022-07-30T02:13:04.669Z,18.83
2022-07-30T02:15:38.704Z,18.85
2022-07-30T02:18:23.798Z,18.93
2022-07-30T02:21:00.485Z,18.98
2022-07-30T02:23:31.425Z,18.94
2022-07-30T02:26:00.708Z,18.91
2022-07-30T02:28:39.378Z,18.88
2022-07-30T02:31:16.945Z,18.84
2022-07-30T02:33:54.942Z,18.86
2022-07-30T02:36:24.052Z,18.83
2022-07-30T02:38:52.231Z,18.82
2022-07-30T02:41:25.086Z,18.77
2022-07-30T02:43:53.373Z,18.82
2022-07-30T02:46:25.855Z,18.79
2022-07-30T02:48:54.692Z,18.71
2022-07-30T02:51:28.567Z,18.60
2022-07-30T02:54:01.517Z,18.60
2022-07-30T02:56:31.909Z,18.60
2022-07-30T02:59:01.919Z,18.58
2022-07-30T03:01:38.484Z,18.62
2022-07-30T03:04:06.778Z,18.61
2022-07-30T03:06:35.620Z,18.59
2022-07-30T03:09:04.393Z,18.62
2022-07-30T03:11:34.016Z,18.64
2022-07-30T03:14:05.789Z,18.62
2022-07-30T03:16:38.669Z,18.62
2022-07-30T03:19:10.122Z,18.67
2022-07-30T03:21:44.769Z,18.68
2022-07-30T03:24:15.233Z,18.69
2022-07-30T03:26:44.046Z,18.62
2022-07-30T03:29:13.681Z,18.67
2022-07-30T03:31:43.501Z,18.62
2022-07-30T03:34:13.152Z,18.63
2022-07-30T03:36:41.602Z,18.60
2022-07-30T03:39:09.593Z,18.60
2022-07-30T03:41:38.582Z,18.66
2022-07-30T03:44:07.232Z,18.74
2022-07-30T03:46:37.055Z,18.78
2022-07-30T03:49:05.965Z,18.71
2022-07-30T03:51:36.046Z,18.59
2022-07-30T03:54:05.581Z,18.60
2022-07-30T03:56:33.620Z,18.53
2022-07-30T03:59:01.852Z,18.44
2022-07-30T04:01:32.249Z,18.41
2022-07-30T04:04:10.110Z,18.42
2022-07-30T04:06:40.969Z,18.42
2022-07-30T04:09:12.795Z,18.37
2022-07-30T04:11:50.185Z,18.29
2022-07-30T04:14:17.593Z,18.21
2022-07-30T04:16:51.829Z,18.16
2022-07-30T04:19:28.345Z,18.21
2022-07-30T04:21:58.457Z,18.30
2022-07-30T04:24:31.632Z,18.28
2022-07-30T04:27:00.567Z,18.29
2022-07-30T04:29:28.527Z,18.26
2022-07-30T04:31:56.924Z,18.32
2022-07-30T04:34:24.113Z,18.34
2022-07-30T04:36:51.346Z,18.39
2022-07-30T04:39:18.496Z,18.41
2022-07-30T04:41:48.787Z,18.47
2022-07-30T04:44:18.900Z,18.46
2022-07-30T04:46:47.150Z,18.49
2022-07-30T04:49:21.625Z,18.49
2022-07-30T04:51:49.643Z,18.45
2022-07-30T04:54:24.742Z,18.54
2022-07-30T04:56:54.737Z,18.61
2022-07-30T04:59:24.880Z,18.68
2022-07-30T05:01:53.654Z,18.69
2022-07-30T05:04:22.478Z,18.72
2022-07-30T05:06:49.961Z,18.78
2022-07-30T05:09:17.746Z,18.56
2022-07-30T05:11:53.037Z,18.79
2022-07-30T05:14:21.367Z,18.76
2022-07-30T05:16:48.893Z,18.68
2022-07-30T05:19:17.109Z,18.75
2022-07-30T05:21:44.336Z,18.72
2022-07-30T05:24:12.035Z,18.77
2022-07-30T05:26:39.696Z,18.84
2022-07-30T05:29:08.255Z,18.95
2022-07-30T05:31:38.171Z,18.89
2022-07-30T05:34:05.743Z,18.99
2022-07-30T05:36:34.097Z,19.02
2022-07-30T05:39:01.759Z,18.97
2022-07-30T05:41:31.900Z,19.04
2022-07-30T05:44:01.907Z,19.16
2022-07-30T05:46:31.148Z,19.17
2022-07-30T05:49:00.510Z,19.14
2022-07-30T05:51:29.273Z,19.19
2022-07-30T05:53:57.514Z,19.24
2022-07-30T05:56:24.739Z,19.37
2022-07-30T05:58:51.884Z,19.30
2022-07-30T06:01:20.826Z,19.30
2022-07-30T06:03:53.639Z,19.28
2022-07-30T06:06:26.546Z,19.22
2022-07-30T06:08:53.598Z,19.31
2022-07-30T06:11:20.912Z,19.34
2022-07-30T06:13:48.256Z,19.44
2022-07-30T06:16:22.456Z,19.48
2022-07-30T06:18:49.613Z,19.51
2022-07-30T06:21:16.821Z,19.53
2022-07-30T06:23:44.192Z,19.55
2022-07-30T06:26:16.543Z,19.46
2022-07-30T06:28:43.703Z,19.46
2022-07-30T06:31:10.931Z,19.42
2022-07-30T06:33:38.216Z,19.59
2022-07-30T06:36:05.571Z,19.65
2022-07-30T06:38:33.232Z,19.69
2022-07-30T06:41:02.637Z,19.77
2022-07-30T06:43:31.845Z,19.74
2022-07-30T06:45:59.318Z,19.76
2022-07-30T06:48:26.792Z,19.80
2022-07-30T06:50:54.018Z,19.85
2022-07-30T06:53:21.207Z,19.88
2022-07-30T06:55:50.432Z,19.91
2022-07-30T06:58:18.177Z,19.99
2022-07-30T07:00:53.076Z,20.05
2022-07-30T07:03:20.405Z,20.09
2022-07-30T07:05:52.925Z,20.06
2022-07-30T07:08:20.238Z,20.09
2022-07-30T07:10:52.474Z,20.09
2022-07-30T07:13:20.692Z,20.11
2022-07-30T07:15:53.738Z,20.21
2022-07-30T07:18:20.992Z,20.21
2022-07-30T07:20:54.625Z,20.14
2022-07-30T07:23:21.869Z,20.19
2022-07-30T07:25:48.990Z,20.12
2022-07-30T07:28:16.288Z,20.26
2022-07-30T07:30:44.377Z,20.24
2022-07-30T07:33:15.606Z,20.29
2022-07-30T07:35:49.790Z,20.30
2022-07-30T07:38:18.317Z,20.15
2022-07-30T07:40:47.065Z,20.26
2022-07-30T07:43:21.124Z,20.33
2022-07-30T07:45:48.513Z,20.34
2022-07-30T07:48:18.696Z,20.24
2022-07-30T07:50:47.372Z,20.27
2022-07-30T07:53:14.760Z,20.29
2022-07-30T07:55:42.212Z,20.19
2022-07-30T07:58:13.484Z,20.24
2022-07-30T08:00:44.965Z,20.33
2022-07-30T08:03:12.118Z,20.43
2022-07-30T08:06:01.052Z,20.45
2022-07-30T08:08:26.605Z,20.50
2022-07-30T08:11:04.422Z,20.54
2022-07-30T08:13:49.177Z,20.40
2022-07-30T08:16:20.333Z,20.30
2022-07-30T08:18:47.613Z,20.43
2022-07-30T08:21:21.176Z,20.41
2022-07-30T08:23:48.356Z,20.56
2022-07-30T08:26:17.666Z,20.70
2022-07-30T08:28:45.708Z,20.80
2022-07-30T08:31:13.082Z,20.86
2022-07-30T08:33:40.229Z,20.78
2022-07-30T08:36:09.778Z,20.85
2022-07-30T08:38:43.137Z,20.93
2022-07-30T08:41:12.873Z,20.95
2022-07-30T08:43:40.540Z,21.04
2022-07-30T08:46:16.040Z,21.13
2022-07-30T08:48:43.249Z,21.11
2022-07-30T08:51:10.783Z,21.13
2022-07-30T08:53:38.318Z,21.24
2022-07-30T08:56:07.489Z,21.24
2022-07-30T08:58:41.755Z,21.39
2022-07-30T09:01:09.571Z,21.45
2022-07-30T09:03:44.089Z,21.34
2022-07-30T09:06:12.283Z,21.39
2022-07-30T09:08:39.556Z,21.55
2022-07-30T09:11:06.627Z,21.68
2022-07-30T09:13:37.615Z,21.81
2022-07-30T09:16:24.522Z,21.70
2022-07-30T09:18:53.597Z,21.87
2022-07-30T09:21:24.021Z,22.08
2022-07-30T09:24:03.128Z,22.23
2022-07-30T09:26:32.836Z,22.30
2022-07-30T09:29:17.306Z,22.35
2022-07-30T09:32:04.169Z,22.24
2022-07-30T09:34:39.860Z,22.26
2022-07-30T09:37:10.397Z,22.39
2022-07-30T09:39:42.022Z,22.57
2022-07-30T09:42:20.058Z,22.68
2022-07-30T09:44:48.396Z,22.62
2022-07-30T09:47:38.820Z,22.64
2022-07-30T09:50:11.309Z,22.53
2022-07-30T09:52:49.095Z,22.49
2022-07-30T09:55:30.795Z,22.41
2022-07-30T09:58:00.272Z,22.33
2022-07-30T10:00:30.804Z,22.25
2022-07-30T10:03:22.023Z,22.33
2022-07-30T10:06:01.303Z,22.40
2022-07-30T10:08:39.253Z,22.51
2022-07-30T10:11:10.590Z,22.68
2022-07-30T10:13:48.135Z,22.84
2022-07-30T10:16:16.433Z,23.03
2022-07-30T10:18:43.594Z,22.99
2022-07-30T10:21:12.498Z,22.86
2022-07-30T10:23:52.545Z,22.71
2022-07-30T10:26:20.845Z,22.35
2022-07-30T10:28:53.411Z,22.57
2022-07-30T10:31:48.639Z,22.62
2022-07-30T10:34:23.965Z,22.54
2022-07-30T10:36:58.408Z,22.54
2022-07-30T10:39:33.035Z,22.55
2022-07-30T10:42:17.144Z,22.63
2022-07-30T10:45:02.923Z,22.65
2022-07-30T10:47:44.813Z,22.71
2022-07-30T10:50:22.190Z,22.79
2022-07-30T10:52:58.120Z,22.85
2022-07-30T10:55:37.344Z,22.91
2022-07-30T10:58:14.245Z,22.91
2022-07-30T11:03:20.084Z,22.94
2022-07-30T11:06:15.729Z,22.95
2022-07-30T11:08:45.576Z,22.91
2022-07-30T11:12:00.118Z,22.94
2022-07-30T11:14:08.595Z,22.91
2022-07-30T11:16:37.129Z,22.91
2022-07-30T11:19:55.676Z,22.95
2022-07-30T11:22:31.716Z,23.12
2022-07-30T11:25:00.528Z,23.24
2022-07-30T11:27:36.286Z,23.40
2022-07-30T11:30:29.614Z,23.43
2022-07-30T11:33:04.405Z,23.53
2022-07-30T11:35:35.243Z,23.47
2022-07-30T11:38:19.603Z,23.53
2022-07-30T11:40:54.835Z,23.68
2022-07-30T11:43:36.172Z,23.73
2022-07-30T11:46:29.044Z,23.80
2022-07-30T11:48:59.521Z,23.90
2022-07-30T11:51:26.752Z,23.88
2022-07-30T11:54:04.827Z,23.98
2022-07-30T11:56:36.883Z,24.08
2022-07-30T11:59:11.846Z,24.11
2022-07-30T12:01:39.053Z,24.13
2022-07-30T12:04:08.829Z,24.16
2022-07-30T12:06:47.014Z,24.26
2022-07-30T12:09:23.532Z,24.30
2022-07-30T12:11:56.100Z,24.39
2022-07-30T12:14:23.327Z,24.50
2022-07-30T12:17:00.577Z,24.53
2022-07-30T12:19:27.994Z,24.60
2022-07-30T12:21:59.912Z,24.72
2022-07-30T12:24:27.112Z,24.78
2022-07-30T12:27:06.896Z,24.91
2022-07-30T12:29:35.536Z,24.89
2022-07-30T12:32:03.089Z,24.83
2022-07-30T12:34:34.605Z,24.94
2022-07-30T12:37:10.034Z,24.99
2022-07-30T12:39:37.723Z,25.13
2022-07-30T12:42:06.468Z,25.28
2022-07-30T12:44:39.254Z,25.23
2022-07-30T12:47:20.160Z,25.22
2022-07-30T12:49:49.879Z,25.21
2022-07-30T12:52:28.187Z,25.25
2022-07-30T12:55:04.109Z,25.21
2022-07-30T12:57:57.468Z,25.03
2022-07-30T13:00:52.653Z,25.09
2022-07-30T13:03:29.306Z,25.27
2022-07-30T13:05:57.150Z,25.51
2022-07-30T13:08:52.538Z,25.67
2022-07-30T13:11:38.456Z,25.73
2022-07-30T13:14:06.601Z,25.85
2022-07-30T13:16:35.782Z,25.94
2022-07-30T13:19:04.144Z,25.88
2022-07-30T13:21:31.356Z,25.96
2022-07-30T13:24:03.301Z,26.03
2022-07-30T13:26:30.494Z,25.94
2022-07-30T13:29:02.090Z,25.74
2022-07-30T13:31:42.251Z,25.81
2022-07-30T13:34:12.043Z,25.92
2022-07-30T13:36:44.722Z,26.12
2022-07-30T13:39:12.451Z,26.27
2022-07-30T13:41:49.506Z,26.50
2022-07-30T13:44:26.126Z,26.63
2022-07-30T13:46:53.380Z,26.69
2022-07-30T13:49:25.303Z,26.69
2022-07-30T13:51:57.159Z,26.71
2022-07-30T13:54:25.658Z,26.83
2022-07-30T13:56:53.354Z,27.09
2022-07-30T13:59:20.492Z,27.13
2022-07-30T14:01:47.609Z,27.40
2022-07-30T14:04:14.846Z,27.41
2022-07-30T14:06:42.058Z,27.47
2022-07-30T14:09:09.298Z,27.32
2022-07-30T14:11:36.359Z,27.16
2022-07-30T14:14:03.631Z,27.13
2022-07-30T14:16:46.197Z,27.11
2022-07-30T14:19:24.254Z,27.11
2022-07-30T14:21:53.630Z,26.91
2022-07-30T14:24:22.872Z,27.03
2022-07-30T14:26:55.828Z,27.08
2022-07-30T14:29:26.001Z,27.16
2022-07-30T14:31:53.654Z,27.31
2022-07-30T14:34:20.976Z,27.49
2022-07-30T14:36:48.205Z,27.64
2022-07-30T14:39:15.449Z,27.95
2022-07-30T14:41:43.121Z,28.15
2022-07-30T14:44:12.257Z,28.09
2022-07-30T14:46:52.026Z,27.91
2022-07-30T14:49:29.466Z,27.82
2022-07-30T14:51:56.993Z,27.77
2022-07-30T14:54:24.465Z,27.95
2022-07-30T14:56:59.713Z,28.18
2022-07-30T14:59:28.278Z,28.31
2022-07-30T15:01:56.931Z,28.27
2022-07-30T15:04:24.098Z,28.21
2022-07-30T15:06:55.721Z,28.41
2022-07-30T15:09:22.873Z,28.37
2022-07-30T15:12:08.515Z,28.13
2022-07-30T15:14:38.360Z,28.01
2022-07-30T15:17:07.719Z,28.36
2022-07-30T15:19:34.972Z,28.55
2022-07-30T15:22:07.150Z,29.11
2022-07-30T15:24:34.659Z,29.45
2022-07-30T15:27:07.071Z,29.51
2022-07-30T15:29:34.314Z,29.54
2022-07-30T15:32:07.046Z,29.81
2022-07-30T15:34:34.872Z,29.85
2022-07-30T15:37:09.950Z,30.29
2022-07-30T15:39:37.221Z,30.32
2022-07-30T15:42:14.297Z,30.39
2022-07-30T15:44:48.396Z,30.51
2022-07-30T15:47:34.556Z,30.37
2022-07-30T15:50:11.139Z,30.26
2022-07-30T15:52:38.614Z,30.13
2022-07-30T15:55:06.986Z,30.24
2022-07-30T15:57:34.372Z,30.05
2022-07-30T16:00:07.513Z,30.08
2022-07-30T16:02:37.237Z,29.57
2022-07-30T16:05:04.711Z,29.45
2022-07-30T16:07:32.077Z,29.08
2022-07-30T16:09:59.250Z,28.55
2022-07-30T16:12:26.594Z,28.43
2022-07-30T16:15:02.688Z,-141.77
2022-07-30T16:17:30.846Z,-141.77
2022-07-30T16:20:16.420Z,-141.77
2022-07-30T16:22:47.458Z,27.80
2022-07-30T16:25:14.772Z,27.46
2022-07-30T16:27:42.310Z,27.49
2022-07-30T16:30:13.957Z,27.45
2022-07-30T16:32:41.162Z,27.37
2022-07-30T16:35:14.453Z,27.37
2022-07-30T16:38:02.745Z,27.35
2022-07-30T16:40:31.651Z,27.30
2022-07-30T16:43:19.930Z,27.18
2022-07-30T16:45:52.225Z,26.98
2022-07-30T16:48:19.446Z,26.81
2022-07-30T16:50:56.449Z,26.62
2022-07-30T16:53:23.830Z,26.47
2022-07-30T16:55:51.025Z,26.52
2022-07-30T16:58:18.367Z,26.51
2022-07-30T17:00:53.983Z,26.58
2022-07-30T17:03:21.205Z,26.62
2022-07-30T17:05:48.425Z,26.69
2022-07-30T17:08:15.552Z,26.72
2022-07-30T17:10:46.011Z,26.79
2022-07-30T17:13:15.291Z,26.74
2022-07-30T17:16:00.603Z,26.75
2022-07-30T17:18:27.838Z,26.74
2022-07-30T17:20:58.265Z,26.72
2022-07-30T17:23:25.467Z,26.68
2022-07-30T17:25:52.597Z,26.63
2022-07-30T17:28:26.909Z,26.63
2022-07-30T17:31:12.577Z,26.56
2022-07-30T17:33:46.446Z,26.47
2022-07-30T17:36:22.134Z,26.30
2022-07-30T17:38:50.711Z,26.28
2022-07-30T17:41:17.890Z,26.22
2022-07-30T17:43:45.050Z,26.18
2022-07-30T17:46:20.386Z,26.17
2022-07-30T17:48:57.522Z,26.11
2022-07-30T17:51:42.910Z,26.06
2022-07-30T17:54:10.304Z,26.02
2022-07-30T17:56:56.013Z,25.96
2022-07-30T17:59:28.280Z,25.97
2022-07-30T18:02:14.097Z,25.97
2022-07-30T18:04:41.290Z,25.94
2022-07-30T18:07:08.498Z,25.88
2022-07-30T18:09:39.937Z,25.84
2022-07-30T18:12:08.203Z,25.80
2022-07-30T18:14:38.475Z,25.70
2022-07-30T18:17:24.266Z,25.60
2022-07-30T18:19:51.445Z,25.54
2022-07-30T18:22:29.133Z,25.48
2022-07-30T18:25:00.029Z,25.47
2022-07-30T18:27:37.421Z,25.51
2022-07-30T18:30:05.017Z,25.17
2022-07-30T18:32:32.206Z,25.45
2022-07-30T18:34:59.380Z,25.43
2022-07-30T18:37:44.950Z,25.37
2022-07-30T18:40:24.087Z,25.34
2022-07-30T18:43:09.601Z,25.30
2022-07-30T18:45:37.320Z,25.25
2022-07-30T18:48:04.998Z,25.18
2022-07-30T18:50:32.821Z,25.15
2022-07-30T18:53:00.145Z,25.07
2022-07-30T18:55:34.246Z,25.01
2022-07-30T18:58:01.552Z,24.98
2022-07-30T19:00:35.266Z,24.96
2022-07-30T19:03:03.812Z,24.90
2022-07-30T19:05:31.193Z,24.87
2022-07-30T19:07:59.140Z,24.83
2022-07-30T19:10:27.346Z,24.79
2022-07-30T19:13:13.010Z,24.80
2022-07-30T19:15:48.593Z,24.78
2022-07-30T19:18:16.137Z,24.79
2022-07-30T19:20:44.042Z,24.75
2022-07-30T19:23:20.457Z,24.73
2022-07-30T19:25:47.826Z,24.72
2022-07-30T19:28:21.750Z,24.71
2022-07-30T19:30:52.046Z,24.68
2022-07-30T19:33:19.329Z,24.65
2022-07-30T19:35:55.114Z,24.63
2022-07-30T19:38:24.066Z,24.57
2022-07-30T19:40:52.067Z,24.59
2022-07-30T19:43:26.635Z,24.53
2022-07-30T19:45:58.526Z,24.49
2022-07-30T19:48:29.485Z,24.43
2022-07-30T19:51:00.501Z,24.37
2022-07-30T19:53:31.235Z,24.36
2022-07-30T19:56:04.374Z,24.34
2022-07-30T19:58:37.693Z,24.30
2022-07-30T20:01:08.330Z,24.28
2022-07-30T20:03:37.089Z,24.26
2022-07-30T20:06:14.498Z,24.23
2022-07-30T20:09:00.718Z,24.25
2022-07-30T20:11:43.604Z,24.24
2022-07-30T20:14:10.827Z,24.17
2022-07-30T20:16:38.193Z,24.10
2022-07-30T20:19:05.498Z,24.09
2022-07-30T20:21:56.644Z,24.04
2022-07-30T20:24:21.116Z,24.02
2022-07-30T20:26:48.312Z,24.03
2022-07-30T20:29:19.108Z,24.02
2022-07-30T20:31:46.916Z,24.01
2022-07-30T20:34:20.579Z,23.96
2022-07-30T20:36:56.364Z,23.95
2022-07-30T20:39:25.347Z,23.94
2022-07-30T20:42:07.523Z,23.95
2022-07-30T20:44:49.541Z,23.94
2022-07-30T20:47:38.227Z,23.91
2022-07-30T20:50:11.257Z,23.88
2022-07-30T20:52:46.572Z,23.85
2022-07-30T20:55:16.624Z,23.86
2022-07-30T20:58:01.921Z,23.83
2022-07-30T21:00:36.607Z,23.83
2022-07-30T21:03:13.617Z,23.84
2022-07-30T21:05:52.392Z,23.82
2022-07-30T21:08:20.500Z,23.80
2022-07-30T21:10:47.686Z,23.75
2022-07-30T21:13:15.222Z,23.72
2022-07-30T21:15:45.306Z,23.61
2022-07-30T21:18:28.602Z,23.55
2022-07-30T21:20:57.027Z,23.54
2022-07-30T21:23:25.007Z,23.47
2022-07-30T21:26:02.979Z,23.40
2022-07-30T21:28:36.287Z,23.38
2022-07-30T21:31:08.745Z,23.36
2022-07-30T21:33:37.212Z,23.35
2022-07-30T21:36:10.269Z,23.29
2022-07-30T21:38:42.381Z,23.29
2022-07-30T21:41:13.816Z,23.26
2022-07-30T21:43:45.898Z,23.24
2022-07-30T21:46:26.881Z,23.20
2022-07-30T21:48:58.373Z,23.15
2022-07-30T21:51:26.576Z,23.09
2022-07-30T21:54:07.288Z,23.06
2022-07-30T21:56:34.592Z,23.11
2022-07-30T21:59:16.538Z,23.04
2022-07-30T22:01:49.818Z,23.00
2022-07-30T22:04:17.264Z,22.98
2022-07-30T22:06:44.779Z,22.94
2022-07-30T22:09:18.948Z,22.94
2022-07-30T22:12:09.874Z,23.00
2022-07-30T22:14:54.086Z,22.98
2022-07-30T22:17:23.797Z,22.93
2022-07-30T22:20:11.351Z,22.90
2022-07-30T22:22:39.923Z,22.88
2022-07-30T22:25:09.778Z,22.89
2022-07-30T22:27:40.360Z,22.90
2022-07-30T22:30:33.608Z,22.91
2022-07-30T22:33:16.364Z,22.89
2022-07-30T22:35:46.891Z,22.87
2022-07-30T22:38:34.893Z,22.81
2022-07-30T22:41:02.125Z,22.79
2022-07-30T22:43:40.997Z,22.79
2022-07-30T22:46:14.879Z,22.68
2022-07-30T22:48:59.413Z,22.62
2022-07-30T22:52:03.777Z,22.64
2022-07-30T22:54:21.999Z,22.56
2022-07-30T22:56:50.352Z,22.53
2022-07-30T22:59:17.460Z,22.51
2022-07-30T23:02:27.881Z,22.41
2022-07-30T23:04:56.386Z,22.40
2022-07-30T23:07:23.689Z,22.34
2022-07-30T23:10:17.323Z,22.33
2022-07-30T23:13:04.104Z,22.33
2022-07-30T23:15:31.505Z,22.41
2022-07-30T23:17:58.625Z,22.49
2022-07-30T23:20:27.441Z,22.56
2022-07-30T23:22:54.953Z,22.57
2022-07-30T23:25:24.851Z,22.63
2022-07-30T23:27:52.027Z,22.61
2022-07-30T23:30:30.040Z,22.57
2022-07-30T23:33:19.665Z,22.54
2022-07-30T23:35:46.744Z,22.55
2022-07-30T23:38:15.197Z,22.53
2022-07-30T23:40:42.309Z,22.52
2022-07-30T23:43:09.392Z,22.53
2022-07-30T23:45:46.361Z,22.54
2022-07-30T23:48:15.189Z,22.53
2022-07-30T23:50:48.602Z,22.54
2022-07-30T23:53:15.909Z,22.48
2022-07-30T23:55:48.894Z,22.47
2022-07-30T23:58:16.073Z,22.42
